createdAt,value
2023-04-09T00:06:34.239Z,99302.40
2023-04-09T00:17:00.148Z,99288.69
2023-04-09T00:27:25.993Z,99290.73
2023-04-09T00:37:51.769Z,99292.30
2023-04-09T00:48:18.858Z,99295.69
2023-04-09T00:58:44.599Z,99296.55
2023-04-09T01:09:17.941Z,99303.64
2023-04-09T01:19:56.129Z,99305.77
2023-04-09T01:30:21.797Z,99313.60
2023-04-09T01:40:48.570Z,99313.05
2023-04-09T01:51:14.929Z,99307.36
2023-04-09T02:01:46.216Z,99307.69
2023-04-09T02:12:15.741Z,99307.09
2023-04-09T02:22:41.752Z,99309.86
2023-04-09T02:33:08.073Z,99301.63
2023-04-09T02:43:34.079Z,99301.46
2023-04-09T02:53:59.737Z,99301.04
2023-04-09T03:04:25.677Z,99306.25
2023-04-09T03:14:51.603Z,99303.48
2023-04-09T03:25:19.788Z,99306.61
2023-04-09T03:35:45.777Z,99309.02
2023-04-09T03:46:15.823Z,99299.00
2023-04-09T03:56:42.112Z,99305.91
2023-04-09T04:07:16.848Z,99309.50
2023-04-09T04:17:43.040Z,99318.70
2023-04-09T04:28:08.829Z,99316.38
2023-04-09T04:38:35.133Z,99324.02
2023-04-09T04:49:01.062Z,99332.19
2023-04-09T04:59:26.789Z,99342.36
2023-04-09T05:09:52.869Z,99338.40
2023-04-09T05:20:18.730Z,99343.44
2023-04-09T05:30:47.426Z,99347.31
2023-04-09T05:41:13.714Z,99358.23
2023-04-09T05:51:39.800Z,99363.66
2023-04-09T06:02:06.427Z,99361.27
2023-04-09T06:12:32.458Z,99362.02
2023-04-09T06:22:58.156Z,99365.16
2023-04-09T06:33:24.266Z,99374.33
2023-04-09T06:43:50.020Z,99380.68
2023-04-09T06:54:16.529Z,99387.39
2023-04-09T07:04:41.799Z,99389.38
2023-04-09T07:15:09.936Z,99395.45
2023-04-09T07:25:35.803Z,99394.40
2023-04-09T07:36:02.267Z,99389.27
2023-04-09T07:46:28.462Z,99395.73
2023-04-09T07:56:54.530Z,99394.79
2023-04-09T08:07:20.366Z,99396.94
2023-04-09T08:17:46.190Z,99398.50
2023-04-09T08:28:11.908Z,99403.05
2023-04-09T08:38:37.650Z,99407.33
2023-04-09T08:49:03.400Z,99414.63
2023-04-09T08:59:29.738Z,99409.19
2023-04-09T09:09:58.340Z,99407.30
2023-04-09T09:20:26.753Z,99407.27
2023-04-09T09:30:52.854Z,99407.98
2023-04-09T09:41:20.751Z,99409.28
2023-04-09T09:51:46.899Z,99407.98
2023-04-09T10:02:20.837Z,99405.94
2023-04-09T10:12:47.378Z,99402.42
2023-04-09T10:23:23.136Z,99398.80
2023-04-09T10:33:49.027Z,99392.02
2023-04-09T10:44:25.235Z,99391.70
2023-04-09T10:54:53.440Z,99377.48
2023-04-09T11:05:27.322Z,99369.58
2023-04-09T11:15:53.306Z,99362.80
2023-04-09T11:26:29.603Z,99366.11
2023-04-09T11:36:54.780Z,99363.34
2023-04-09T11:47:21.377Z,99361.25
2023-04-09T11:57:48.270Z,99362.63
2023-04-09T12:08:13.951Z,99358.45
2023-04-09T12:18:40.641Z,99357.38
2023-04-09T12:29:06.808Z,99355.61
2023-04-09T12:39:33.836Z,99346.38
2023-04-09T12:49:59.063Z,99347.95
2023-04-09T13:00:24.956Z,99340.98
2023-04-09T13:10:51.750Z,99347.61
2023-04-09T13:21:19.018Z,99343.27
2023-04-09T13:31:45.131Z,99346.77
2023-04-09T13:42:14.165Z,99341.70
2023-04-09T13:52:40.877Z,99333.14
2023-04-09T14:03:07.545Z,99331.73
2023-04-09T14:13:33.983Z,99331.19
2023-04-09T14:24:00.402Z,99325.78
2023-04-09T14:34:26.066Z,99318.27
2023-04-09T14:44:52.158Z,99313.23
2023-04-09T14:55:17.672Z,99302.24
2023-04-09T15:05:43.894Z,99292.96
2023-04-09T15:16:11.049Z,99295.98
2023-04-09T15:26:36.806Z,99297.45
2023-04-09T15:37:03.061Z,99300.45
2023-04-09T15:47:30.058Z,99301.33
2023-04-09T15:57:57.208Z,99306.20
2023-04-09T16:08:23.306Z,99308.29
2023-04-09T16:18:49.534Z,99320.30
2023-04-09T16:29:16.477Z,99327.08
2023-04-09T16:39:42.448Z,99325.73
2023-04-09T16:50:11.644Z,99334.25
2023-04-09T17:00:37.275Z,99337.55
2023-04-09T17:11:03.768Z,99348.01
2023-04-09T17:21:29.598Z,99358.11
2023-04-09T17:31:56.186Z,99369.40
2023-04-09T17:42:22.229Z,99378.77
2023-04-09T17:52:48.408Z,99392.71
2023-04-09T18:03:14.570Z,99406.61
2023-04-09T18:13:41.637Z,99412.70
2023-04-09T18:24:08.043Z,99418.08
2023-04-09T18:34:33.999Z,99422.77
2023-04-09T18:44:59.998Z,99424.86
2023-04-09T18:55:26.889Z,99437.77
2023-04-09T19:05:52.856Z,99452.20
2023-04-09T19:16:18.871Z,99457.13
2023-04-09T19:26:44.651Z,99457.94
2023-04-09T19:37:11.646Z,99457.17
2023-04-09T19:47:37.480Z,99462.80
2023-04-09T19:58:04.049Z,99466.81
2023-04-09T20:08:29.949Z,99475.39
2023-04-09T20:18:56.035Z,99475.76
2023-04-09T20:29:22.590Z,99478.22
2023-04-09T20:39:48.331Z,99483.69
2023-04-09T20:50:14.690Z,99479.44
2023-04-09T21:00:40.614Z,99485.13
2023-04-09T21:11:07.088Z,99485.19
2023-04-09T21:21:32.620Z,99486.92
2023-04-09T21:31:58.225Z,99484.92
2023-04-09T21:42:23.782Z,99491.14
2023-04-09T21:52:49.830Z,99492.40
2023-04-09T22:03:15.986Z,99493.14
2023-04-09T22:13:42.029Z,99492.35
2023-04-09T22:24:08.106Z,99492.71
2023-04-09T22:34:34.893Z,99494.62
2023-04-09T22:45:00.611Z,99495.94
2023-04-09T22:55:26.563Z,99495.54
2023-04-09T23:05:52.073Z,99497.15
2023-04-09T23:16:18.397Z,99501.34
2023-04-09T23:26:44.823Z,99495.16
2023-04-09T23:37:10.406Z,99491.85
2023-04-09T23:47:37.508Z,99485.27
2023-04-09T23:58:03.083Z,99480.41
